Bishop Auckland, United Kingdom
Current Conditions -  °F | °C
As of 4:20 PM on Monday 22 Dec 2014 (Local Time) from EGNV Reporting Station
Broken Clouds Broken Clouds  
Wind Chill: 55°   Ceiling: 3300
Heat Index: 55°   Visibility: 6mi
Dew Point: 46°   Wind: 22mph
Humidity: 72%   Direction: 250°WSW
Pressure: 29.71"   Gusts: 33mph
Location:  54.66°N, 1.68°W
Report Text: EGNV 221620Z 25019G29KT 9999 FEW021 BKN033 13/08 Q1006
Loading
Personal Weather Stations






























Interactive Weather Map New forecast layout! Learn more

10-Day Weather Forecast

Advertisements
Track Severe Weather on mobile